KCUB

Jim Hamilton L B Owens Airport

Columbia, South Carolina, USA
METAR KCUB 200453Z AUTO 19003KT 10SM CLR 28/22 A2991 RMK AO2 SLP126 T02830222 403780244
Observed Flight Rules
Jun-20 @ 04:53 UTC (52 minutes ago) Visual Flight Rules
Wind Visibility Clouds
190° at 3 knots 10 miles
  • Clear skies
Temperatures Readings
Current 28°C / 82°F
Dewpoint 22°C / 72°F
Humidity 70%
Altimeter 29.91" Hg
Pressure 1012.6 hPa
Elevation 56
METAR KCUB 200453Z AUTO 19003KT 10SM CLR 28/22 A2991 RMK AO2 SLP126 T02830222 403780244
Observed Flight Rules
Jun-20 @ 04:53 UTC
(52 minutes ago)
VFR
Wind Visibility
190° at 3 knots 10 miles
Clouds
  • Clear skies
Temperature Dewpoint
28°C / 82°F 22°C / 72°F
Humidity Altimeter Pressure
70% 29.91" Hg 1012.6 hPa